Time;durP1;ratioP1;P1;durP2;ratioP2;P2;SDS_P1;SDS_P2;PMS_P1;PMS_P2;Temp;Humidity;BMP_temperature;BMP_pressure;BME280_temperature;BME280_humidity;BME280_pressure;Samples;Min_cycle;Max_cycle;Signal;HPM_P1;HPM_P2
2023/01/23 00:00:09;;;;;;;2.30;1.15;;;23.50;48.70;;;;;;4949484;28;20265;-59
2023/01/23 00:02:40;;;;;;;2.17;0.70;;;23.50;48.70;;;;;;4933394;29;20239;-58
2023/01/23 00:05:13;;;;;;;1.38;0.95;;;23.50;48.70;;;;;;4933811;29;20668;-58
2023/01/23 00:07:44;;;;;;;3.00;1.05;;;23.50;49.30;;;;;;4933391;29;20234;-60
2023/01/23 00:10:15;;;;;;;2.10;0.73;;;23.50;48.70;;;;;;4933908;29;20691;-60
2023/01/23 00:12:47;;;;;;;2.45;1.10;;;23.50;48.70;;;;;;4933501;29;20282;-60
2023/01/23 00:15:18;;;;;;;3.55;0.85;;;23.50;48.70;;;;;;4933550;29;20199;-57
2023/01/23 00:17:49;;;;;;;4.18;1.10;;;23.50;48.70;;;;;;4937697;29;20241;-60
2023/01/23 00:20:22;;;;;;;2.35;1.00;;;23.50;48.70;;;;;;4940577;29;20199;-58
2023/01/23 00:22:52;;;;;;;1.92;0.85;;;23.50;48.70;;;;;;4939927;29;20207;-58
2023/01/23 00:25:23;;;;;;;2.15;0.90;;;23.50;48.70;;;;;;4939747;29;20679;-58
2023/01/23 00:27:54;;;;;;;1.60;0.90;;;23.60;48.70;;;;;;4939848;29;20599;-58
2023/01/23 00:30:24;;;;;;;1.30;0.90;;;23.60;48.80;;;;;;4940151;29;20230;-57
2023/01/23 00:32:55;;;;;;;1.00;0.90;;;23.60;48.70;;;;;;4933998;29;20210;-61
2023/01/23 00:35:28;;;;;;;1.23;0.93;;;23.60;48.70;;;;;;4939187;29;20203;-61
2023/01/23 00:37:59;;;;;;;2.00;1.00;;;23.60;48.70;;;;;;4943776;29;20229;-58
2023/01/23 00:40:29;;;;;;;1.38;0.80;;;23.60;48.80;;;;;;4941893;28;20191;-58
2023/01/23 00:43:00;;;;;;;2.22;0.75;;;23.60;48.80;;;;;;4944115;29;20566;-58
2023/01/23 00:45:31;;;;;;;2.25;0.88;;;23.60;48.70;;;;;;4957027;28;20225;-58
2023/01/23 00:48:01;;;;;;;2.15;0.80;;;23.60;48.80;;;;;;4942371;29;20221;-58
2023/01/23 00:50:34;;;;;;;1.63;0.90;;;23.60;48.70;;;;;;4945291;28;20207;-58
2023/01/23 00:53:05;;;;;;;0.90;0.70;;;23.60;48.70;;;;;;4931003;28;20191;-57
2023/01/23 00:55:35;;;;;;;0.90;0.75;;;23.60;48.70;;;;;;4958715;28;20213;-58
2023/01/23 00:58:06;;;;;;;0.98;0.70;;;23.60;48.70;;;;;;4957704;28;20218;-57
2023/01/23 01:00:37;;;;;;;1.33;0.88;;;23.60;48.70;;;;;;4958018;28;20206;-58
2023/01/23 01:03:08;;;;;;;1.58;0.60;;;23.60;48.70;;;;;;4958217;28;20186;-57
2023/01/23 01:05:41;;;;;;;4.47;1.10;;;23.60;48.80;;;;;;4958552;28;20206;-58
2023/01/23 01:08:12;;;;;;;1.25;0.80;;;23.60;48.80;;;;;;4958119;28;20228;-58
2023/01/23 01:10:43;;;;;;;1.40;0.90;;;23.60;48.80;;;;;;4958380;28;20206;-57
2023/01/23 01:13:17;;;;;;;1.13;0.60;;;23.60;48.80;;;;;;4955121;28;20199;-58
2023/01/23 01:15:49;;;;;;;1.50;0.93;;;23.60;48.80;;;;;;4957931;28;20666;-58
2023/01/23 01:18:20;;;;;;;0.85;0.63;;;23.60;48.80;;;;;;4957766;28;20214;-57
2023/01/23 01:20:53;;;;;;;1.40;0.82;;;23.60;48.80;;;;;;4943416;28;20199;-57
2023/01/23 01:23:24;;;;;;;1.60;0.70;;;23.60;48.90;;;;;;4941300;28;20198;-57
2023/01/23 01:25:54;;;;;;;1.42;0.90;;;23.60;48.80;;;;;;4957785;28;20214;-57
2023/01/23 01:28:26;;;;;;;2.33;0.80;;;23.60;48.80;;;;;;4952344;28;20234;-58
2023/01/23 01:30:56;;;;;;;1.33;0.73;;;23.60;48.80;;;;;;4955448;28;20199;-58
2023/01/23 01:33:27;;;;;;;2.30;0.93;;;23.70;48.90;;;;;;4954886;28;20834;-58
2023/01/23 01:36:00;;;;;;;2.67;1.10;;;23.70;48.90;;;;;;4954996;28;20214;-55
2023/01/23 01:38:31;;;;;;;2.70;0.90;;;23.60;48.80;;;;;;4954870;28;20218;-57
2023/01/23 01:41:01;;;;;;;1.63;0.80;;;23.70;48.90;;;;;;4955446;28;20211;-56
2023/01/23 01:43:33;;;;;;;1.00;0.70;;;23.60;48.90;;;;;;4945731;28;20655;-56
2023/01/23 01:46:22;;;;;;;1.30;1.00;;;23.60;48.90;;;;;;4954920;28;20671;-55
2023/01/23 01:49:06;;;;;;;1.60;0.73;;;23.60;48.90;;;;;;4954738;28;20700;-56
2023/01/23 01:51:43;;;;;;;3.22;0.80;;;23.70;49.00;;;;;;4954870;28;20629;-58
2023/01/23 01:54:20;;;;;;;1.25;0.85;;;23.70;49.70;;;;;;4954313;28;20561;-58
2023/01/23 01:56:53;;;;;;;3.95;0.82;;;23.60;49.00;;;;;;4953064;28;20223;-58
2023/01/23 01:59:27;;;;;;;1.38;0.85;;;23.70;49.00;;;;;;4940597;29;20218;-55
2023/01/23 02:02:06;;;;;;;1.48;0.75;;;23.70;49.10;;;;;;4954032;28;20209;-54
2023/01/23 02:04:39;;;;;;;1.98;0.80;;;23.70;49.00;;;;;;4954257;28;20195;-56
2023/01/23 02:07:17;;;;;;;2.75;0.82;;;23.60;49.00;;;;;;4940093;28;20227;-56
2023/01/23 02:09:48;;;;;;;0.95;0.73;;;23.70;49.00;;;;;;4949739;29;20194;-58
2023/01/23 02:12:18;;;;;;;1.23;0.60;;;23.70;49.00;;;;;;4953485;28;20234;-56
2023/01/23 02:14:49;;;;;;;2.22;0.95;;;23.70;49.00;;;;;;4950244;29;20202;-58
2023/01/23 02:17:20;;;;;;;1.13;0.70;;;23.70;49.00;;;;;;4954427;28;20695;-56
2023/01/23 02:19:58;;;;;;;2.78;0.90;;;23.70;49.00;;;;;;4954551;28;20206;-56
2023/01/23 02:22:37;;;;;;;2.35;0.90;;;23.70;49.10;;;;;;4944042;28;20207;-58
2023/01/23 02:25:20;;;;;;;1.40;0.80;;;23.70;49.10;;;;;;4951376;29;20206;-58
2023/01/23 02:27:52;;;;;;;1.63;0.90;;;23.70;49.10;;;;;;4948550;28;20222;-56
2023/01/23 02:30:23;;;;;;;1.60;0.93;;;23.60;49.10;;;;;;4953738;29;20210;-57
2023/01/23 02:32:54;;;;;;;1.45;0.77;;;23.70;49.10;;;;;;4954087;28;20690;-58
2023/01/23 02:35:29;;;;;;;2.90;0.82;;;23.70;49.20;;;;;;4953663;28;20199;-56
2023/01/23 02:38:03;;;;;;;1.85;0.98;;;23.70;49.10;;;;;;4923018;28;20224;-59
2023/01/23 02:40:37;;;;;;;1.95;1.00;;;23.60;49.00;;;;;;4953598;28;20198;-59
2023/01/23 02:43:10;;;;;;;1.42;0.90;;;23.70;49.10;;;;;;4946116;28;20236;-56
2023/01/23 02:45:41;;;;;;;1.90;0.75;;;23.70;49.10;;;;;;4926599;29;20192;-58
2023/01/23 02:48:12;;;;;;;1.20;0.60;;;23.70;49.00;;;;;;4929482;29;20227;-58
2023/01/23 02:50:45;;;;;;;1.30;0.60;;;23.70;49.00;;;;;;4934963;28;20192;-55
2023/01/23 02:53:16;;;;;;;2.80;0.80;;;23.70;49.10;;;;;;4934857;29;20231;-59
2023/01/23 02:55:46;;;;;;;1.38;0.60;;;23.70;49.00;;;;;;4953852;28;20319;-57
2023/01/23 03:01:11;;;;;;;2.00;1.20;;;23.70;49.00;;;;;;4915964;28;20196;-56
2023/01/23 03:03:42;;;;;;;1.45;0.90;;;23.60;48.90;;;;;;4953391;28;20195;-58
2023/01/23 03:06:13;;;;;;;2.33;0.85;;;23.70;49.00;;;;;;4953801;28;20202;-58
2023/01/23 03:08:48;;;;;;;2.28;0.88;;;23.60;49.00;;;;;;4952941;28;20195;-57
2023/01/23 03:11:20;;;;;;;2.20;0.88;;;23.60;49.00;;;;;;4952933;28;20194;-58
2023/01/23 03:13:53;;;;;;;0.98;0.68;;;23.60;48.90;;;;;;4944172;28;20214;-56
2023/01/23 03:16:23;;;;;;;3.38;0.70;;;23.60;48.90;;;;;;4953455;28;20202;-57
2023/01/23 03:18:56;;;;;;;2.17;0.80;;;23.70;49.00;;;;;;4926959;28;20203;-58
2023/01/23 03:21:26;;;;;;;2.42;0.73;;;23.60;48.90;;;;;;4927535;28;20642;-59
2023/01/23 03:23:57;;;;;;;2.40;0.70;;;23.60;48.90;;;;;;4922655;29;20238;-58
2023/01/23 03:26:28;;;;;;;2.05;0.80;;;23.70;49.00;;;;;;4946705;28;20202;-56
2023/01/23 03:31:48;;;;;;;1.30;0.80;;;23.70;49.00;;;;;;4953345;29;20339;-58
2023/01/23 03:34:20;;;;;;;2.08;1.00;;;23.70;49.00;;;;;;4953135;28;20551;-57
2023/01/23 03:36:51;;;;;;;1.75;0.80;;;23.70;48.90;;;;;;4938796;28;20229;-59
2023/01/23 03:42:08;;;;;;;1.02;0.70;;;23.60;48.90;;;;;;4916094;29;20210;-58
2023/01/23 03:44:41;;;;;;;2.47;1.05;;;23.70;48.90;;;;;;4932275;29;20199;-58
2023/01/23 03:47:12;;;;;;;1.33;0.75;;;23.60;48.80;;;;;;4952910;28;20222;-57
2023/01/23 03:49:43;;;;;;;1.63;0.88;;;23.60;48.80;;;;;;4952665;28;20226;-57
2023/01/23 03:52:13;;;;;;;3.20;0.93;;;23.60;48.80;;;;;;4951982;28;20234;-58
2023/01/23 03:54:44;;;;;;;2.33;0.73;;;23.60;48.90;;;;;;4952668;28;20202;-58
2023/01/23 03:57:15;;;;;;;1.42;0.73;;;23.60;48.90;;;;;;4939990;28;20224;-57
2023/01/23 03:59:47;;;;;;;1.55;0.73;;;23.60;48.90;;;;;;4924390;29;20221;-57
2023/01/23 04:02:18;;;;;;;1.92;0.80;;;23.60;48.90;;;;;;4914832;29;20595;-58
2023/01/23 04:04:49;;;;;;;2.10;0.82;;;23.60;48.80;;;;;;4931949;29;20249;-56
2023/01/23 04:07:20;;;;;;;1.05;0.55;;;23.60;48.80;;;;;;4936032;28;20227;-59
2023/01/23 04:09:50;;;;;;;1.73;0.80;;;23.70;49.00;;;;;;4941723;29;20202;-57
2023/01/23 04:12:21;;;;;;;1.92;0.73;;;23.70;48.90;;;;;;4950370;28;20248;-56
2023/01/23 04:14:54;;;;;;;1.48;0.60;;;23.70;48.90;;;;;;4942252;29;20561;-58
2023/01/23 04:17:24;;;;;;;1.80;0.88;;;23.70;48.90;;;;;;4953541;28;20223;-58
2023/01/23 04:19:55;;;;;;;1.50;0.80;;;23.70;48.80;;;;;;4953212;28;20195;-59
2023/01/23 04:22:26;;;;;;;3.80;1.27;;;23.70;48.80;;;;;;4952527;28;20202;-55
2023/01/23 04:24:56;;;;;;;1.80;0.88;;;23.60;48.80;;;;;;4952411;28;20210;-57
2023/01/23 04:27:27;;;;;;;1.63;0.90;;;23.60;48.80;;;;;;4949373;28;21045;-53
2023/01/23 04:29:59;;;;;;;1.40;0.85;;;23.60;48.80;;;;;;4942154;29;20206;-58
2023/01/23 04:32:30;;;;;;;1.98;0.90;;;23.70;48.80;;;;;;4952666;28;20230;-58
2023/01/23 04:35:01;;;;;;;2.70;0.82;;;23.70;48.80;;;;;;4951584;28;20199;-58
2023/01/23 04:37:32;;;;;;;2.17;0.95;;;23.70;48.80;;;;;;4952386;28;20314;-58
2023/01/23 04:40:02;;;;;;;5.28;1.00;;;23.70;48.80;;;;;;4951267;28;20199;-58
2023/01/23 04:42:33;;;;;;;3.28;0.93;;;23.70;48.80;;;;;;4945477;28;20199;-58
2023/01/23 04:45:06;;;;;;;1.58;0.73;;;23.70;48.80;;;;;;4925482;29;20192;-58
2023/01/23 04:47:36;;;;;;;3.35;0.98;;;23.70;48.90;;;;;;4932435;29;20227;-56
2023/01/23 04:50:08;;;;;;;1.85;0.80;;;23.70;48.80;;;;;;4941795;29;20195;-58
2023/01/23 04:52:38;;;;;;;2.38;1.10;;;23.70;48.90;;;;;;4951478;28;20261;-58
2023/01/23 04:55:10;;;;;;;2.33;1.05;;;23.60;48.80;;;;;;4951704;28;20198;-57
2023/01/23 04:57:41;;;;;;;1.38;0.88;;;23.70;48.80;;;;;;4951752;28;20301;-59
2023/01/23 05:00:14;;;;;;;3.72;1.00;;;23.70;48.90;;;;;;4951535;28;20202;-59
2023/01/23 05:02:47;;;;;;;2.13;1.02;;;23.70;48.90;;;;;;4951705;28;20233;-58
2023/01/23 05:05:19;;;;;;;2.28;0.88;;;23.60;48.80;;;;;;4954664;28;20202;-57
2023/01/23 05:07:51;;;;;;;2.45;0.80;;;23.60;48.90;;;;;;4955528;28;20223;-56
2023/01/23 05:10:22;;;;;;;4.00;1.00;;;23.60;48.90;;;;;;4955836;28;20205;-56
2023/01/23 05:12:52;;;;;;;1.55;0.70;;;23.60;48.90;;;;;;4931157;28;20238;-58
2023/01/23 05:15:25;;;;;;;1.95;0.90;;;23.60;48.90;;;;;;4936532;29;20204;-58
2023/01/23 05:17:56;;;;;;;1.30;0.82;;;23.60;48.90;;;;;;4945009;28;20220;-57
2023/01/23 05:20:26;;;;;;;2.90;1.02;;;23.60;48.90;;;;;;4934080;29;20205;-58
2023/01/23 05:22:57;;;;;;;1.35;0.70;;;23.60;48.90;;;;;;4955091;29;20198;-58
2023/01/23 05:25:29;;;;;;;1.80;0.90;;;23.60;48.90;;;;;;4954943;28;20203;-58
2023/01/23 05:28:00;;;;;;;3.45;0.90;;;23.60;48.80;;;;;;4952932;28;20249;-57
2023/01/23 05:30:33;;;;;;;1.77;0.90;;;23.60;48.80;;;;;;4936558;28;20243;-56
2023/01/23 05:33:04;;;;;;;2.53;0.90;;;23.60;48.80;;;;;;4935823;29;20230;-58
2023/01/23 05:35:34;;;;;;;2.88;1.10;;;23.60;48.80;;;;;;4935259;29;20565;-58
2023/01/23 05:38:05;;;;;;;3.45;1.17;;;23.60;48.80;;;;;;4916435;29;20220;-57
2023/01/23 05:40:36;;;;;;;2.03;0.90;;;23.50;48.80;;;;;;4916729;29;20603;-58
2023/01/23 05:43:08;;;;;;;2.85;1.20;;;23.50;48.80;;;;;;4923780;29;21109;-58
2023/01/23 05:45:40;;;;;;;3.13;1.10;;;23.50;48.80;;;;;;4935590;29;20218;-58
2023/01/23 05:48:11;;;;;;;4.45;1.10;;;23.50;48.80;;;;;;4917226;29;20228;-58
2023/01/23 05:50:42;;;;;;;1.92;0.82;;;23.50;48.80;;;;;;4916388;29;20200;-59
2023/01/23 05:53:13;;;;;;;1.83;0.80;;;23.50;48.90;;;;;;4916791;29;20232;-59
2023/01/23 05:55:43;;;;;;;1.35;0.70;;;23.50;48.90;;;;;;4915940;29;20297;-58
2023/01/23 05:58:14;;;;;;;3.70;1.05;;;23.50;48.90;;;;;;4916705;29;20234;-58
2023/01/23 06:00:47;;;;;;;1.08;0.90;;;23.50;48.90;;;;;;4935666;29;20218;-58
2023/01/23 06:03:17;;;;;;;1.65;0.75;;;23.50;48.90;;;;;;4954009;28;20365;-58
2023/01/23 06:05:48;;;;;;;3.38;1.10;;;23.50;48.80;;;;;;4950240;28;20191;-59
2023/01/23 06:08:19;;;;;;;1.65;0.93;;;23.50;48.80;;;;;;4935271;29;20224;-58
2023/01/23 06:10:49;;;;;;;2.53;1.20;;;23.40;48.80;;;;;;4935901;29;20206;-59
2023/01/23 06:13:20;;;;;;;1.85;0.77;;;23.40;48.80;;;;;;4924900;29;20231;-58
2023/01/23 06:15:53;;;;;;;3.10;1.10;;;23.40;48.80;;;;;;4934795;29;20570;-58
2023/01/23 06:18:23;;;;;;;2.50;1.05;;;23.40;48.80;;;;;;4915732;29;20227;-59
2023/01/23 06:21:00;;;;;;;3.38;1.20;;;23.40;48.70;;;;;;4915757;29;20204;-58
2023/01/23 06:23:31;;;;;;;1.90;0.98;;;23.40;48.80;;;;;;4915562;29;20679;-58
2023/01/23 06:26:05;;;;;;;3.45;1.15;;;23.40;48.80;;;;;;4916909;29;20200;-59
2023/01/23 06:28:36;;;;;;;2.83;1.25;;;23.40;48.80;;;;;;4954443;28;20237;-59
2023/01/23 06:31:09;;;;;;;2.17;0.85;;;23.40;48.90;;;;;;4953207;28;20195;-58
2023/01/23 06:33:39;;;;;;;2.38;1.00;;;23.40;48.90;;;;;;4954166;28;20231;-58
2023/01/23 06:36:11;;;;;;;1.77;0.90;;;23.40;49.00;;;;;;4953590;28;20203;-59
2023/01/23 06:38:42;;;;;;;1.63;0.82;;;23.40;49.00;;;;;;4953942;28;20226;-59
2023/01/23 06:41:13;;;;;;;3.05;1.27;;;23.40;48.90;;;;;;4954052;28;20207;-59
2023/01/23 06:43:44;;;;;;;2.88;0.93;;;23.40;48.90;;;;;;4941389;28;20684;-58
2023/01/23 06:46:16;;;;;;;2.30;1.20;;;23.40;48.90;;;;;;4934424;29;20652;-58
2023/01/23 06:48:47;;;;;;;2.47;0.95;;;23.30;48.80;;;;;;4934789;29;20601;-59
2023/01/23 06:51:17;;;;;;;4.22;1.30;;;23.30;48.90;;;;;;4934362;29;20214;-58
2023/01/23 06:53:48;;;;;;;2.28;0.90;;;23.30;48.80;;;;;;4934009;29;20227;-59
2023/01/23 06:56:19;;;;;;;1.92;0.90;;;23.30;48.80;;;;;;4935060;29;20587;-59
2023/01/23 06:58:49;;;;;;;1.33;0.80;;;23.30;48.80;;;;;;4934893;29;20203;-59
2023/01/23 07:01:22;;;;;;;2.20;1.15;;;23.30;48.80;;;;;;4934774;29;20207;-58
2023/01/23 07:03:53;;;;;;;4.38;1.08;;;23.30;48.80;;;;;;4934598;29;20255;-58
2023/01/23 07:06:24;;;;;;;2.22;0.98;;;23.30;48.90;;;;;;4934191;29;20214;-58
2023/01/23 07:08:54;;;;;;;2.22;0.90;;;23.30;48.90;;;;;;4934476;29;20203;-59
2023/01/23 07:11:25;;;;;;;2.33;0.80;;;23.30;48.90;;;;;;4934789;29;20206;-58
2023/01/23 07:13:56;;;;;;;1.77;0.95;;;23.30;48.90;;;;;;4934356;29;20231;-58
2023/01/23 07:16:28;;;;;;;2.97;1.00;;;23.30;49.00;;;;;;4934367;29;20208;-55
2023/01/23 07:19:00;;;;;;;2.45;0.88;;;23.30;49.60;;;;;;4934321;29;20304;-58
2023/01/23 07:21:31;;;;;;;1.50;0.98;;;23.30;48.90;;;;;;4933920;29;20199;-58
2023/01/23 07:24:01;;;;;;;2.42;0.95;;;23.20;48.80;;;;;;4936630;29;20210;-58
2023/01/23 07:26:32;;;;;;;2.55;0.82;;;23.20;48.80;;;;;;4933668;29;20222;-59
2023/01/23 07:29:03;;;;;;;3.38;1.00;;;23.20;48.80;;;;;;4934216;29;20210;-59
2023/01/23 07:31:35;;;;;;;1.63;1.00;;;23.20;48.80;;;;;;4934077;29;20676;-58
2023/01/23 07:34:06;;;;;;;3.22;1.02;;;23.20;48.80;;;;;;4933747;29;20231;-60
2023/01/23 07:36:37;;;;;;;1.23;0.75;;;23.10;48.80;;;;;;4933629;29;20696;-58
2023/01/23 07:39:07;;;;;;;3.33;1.05;;;23.20;48.80;;;;;;4933463;29;20577;-58
2023/01/23 07:41:38;;;;;;;2.00;1.02;;;23.20;48.80;;;;;;4933614;29;20640;-58
2023/01/23 07:44:09;;;;;;;1.92;1.08;;;23.20;48.80;;;;;;4933846;29;20234;-58
2023/01/23 07:46:42;;;;;;;2.25;1.00;;;23.20;48.90;;;;;;4933974;29;20234;-58
2023/01/23 07:49:13;;;;;;;3.50;1.10;;;23.20;48.90;;;;;;4934218;29;20199;-58
2023/01/23 07:51:44;;;;;;;2.38;1.20;;;23.20;49.00;;;;;;4933902;29;20207;-56
2023/01/23 07:54:14;;;;;;;2.38;1.13;;;23.10;48.90;;;;;;4933832;29;20227;-58
2023/01/23 07:56:45;;;;;;;2.85;1.10;;;23.20;48.90;;;;;;4933795;29;20699;-57
2023/01/23 07:59:16;;;;;;;3.70;1.55;;;23.10;48.90;;;;;;4933722;29;20215;-56
2023/01/23 08:01:51;;;;;;;3.67;1.85;;;23.10;48.80;;;;;;4933532;29;20203;-57
2023/01/23 08:04:22;;;;;;;4.70;1.73;;;23.10;48.80;;;;;;4935836;29;20210;-57
2023/01/23 08:06:52;;;;;;;4.65;1.73;;;23.10;48.80;;;;;;4933539;29;20223;-54
2023/01/23 08:09:23;;;;;;;4.13;1.60;;;23.10;48.90;;;;;;4933822;29;20215;-55
2023/01/23 08:11:54;;;;;;;3.90;1.55;;;23.10;49.00;;;;;;4933843;29;20204;-58
2023/01/23 08:14:25;;;;;;;4.97;1.63;;;23.10;49.10;;;;;;4933299;29;20227;-56
2023/01/23 08:16:58;;;;;;;3.67;1.42;;;23.10;49.10;;;;;;4933326;29;20743;-56
2023/01/23 08:19:29;;;;;;;3.47;1.40;;;23.10;49.20;;;;;;4929957;29;20206;-54
2023/01/23 08:21:59;;;;;;;3.70;1.50;;;23.00;49.20;;;;;;4930530;29;20200;-56
2023/01/23 08:24:30;;;;;;;4.13;1.33;;;23.00;49.20;;;;;;4939007;29;20213;-57
2023/01/23 08:27:01;;;;;;;2.55;1.30;;;23.00;49.20;;;;;;4934940;28;20211;-55
2023/01/23 08:29:33;;;;;;;3.17;1.30;;;23.00;49.30;;;;;;4939885;29;20560;-56
2023/01/23 08:32:05;;;;;;;3.05;1.17;;;23.00;49.30;;;;;;4952065;28;20565;-56
2023/01/23 08:34:36;;;;;;;3.38;1.40;;;23.00;49.30;;;;;;4951751;28;20222;-57
2023/01/23 08:37:07;;;;;;;3.63;1.30;;;23.00;49.30;;;;;;4950785;28;20597;-53
2023/01/23 08:39:37;;;;;;;3.17;1.10;;;23.00;49.30;;;;;;4943775;29;20207;-55
2023/01/23 08:42:08;;;;;;;2.78;1.20;;;23.00;49.30;;;;;;4936671;28;20212;-56
2023/01/23 08:44:39;;;;;;;2.58;1.30;;;23.00;49.30;;;;;;4932695;29;20202;-52
2023/01/23 08:47:11;;;;;;;3.47;1.38;;;23.00;49.30;;;;;;4933413;28;20227;-54
2023/01/23 08:49:42;;;;;;;3.75;1.08;;;23.00;49.20;;;;;;4932622;29;20194;-56
2023/01/23 08:52:12;;;;;;;2.83;1.10;;;23.00;49.20;;;;;;4956023;28;20226;-54
2023/01/23 08:54:43;;;;;;;3.45;1.48;;;23.00;49.20;;;;;;4955485;28;20222;-55
2023/01/23 08:57:14;;;;;;;3.60;1.40;;;22.90;49.20;;;;;;4955161;28;20581;-55
2023/01/23 08:59:44;;;;;;;4.90;1.35;;;22.90;49.20;;;;;;4952671;28;20329;-53
2023/01/23 09:02:17;;;;;;;3.45;1.27;;;22.90;49.20;;;;;;4936089;29;20196;-54
2023/01/23 09:04:48;;;;;;;2.63;1.20;;;22.90;49.20;;;;;;4944172;29;20195;-51
2023/01/23 09:07:18;;;;;;;2.45;1.35;;;22.90;49.20;;;;;;4955086;28;20230;-55
2023/01/23 09:09:49;;;;;;;2.22;1.02;;;22.90;49.20;;;;;;4955480;28;20206;-54
2023/01/23 09:12:20;;;;;;;1.45;1.20;;;22.90;49.20;;;;;;4953512;28;20203;-55
2023/01/23 09:14:50;;;;;;;2.28;1.13;;;22.90;49.20;;;;;;4939969;29;20226;-55
2023/01/23 09:17:23;;;;;;;2.38;1.00;;;22.90;49.20;;;;;;4955394;28;20223;-52
2023/01/23 09:19:54;;;;;;;3.22;1.13;;;22.90;49.20;;;;;;4955390;28;20203;-56
2023/01/23 09:22:25;;;;;;;3.70;1.10;;;22.90;49.20;;;;;;4955034;28;20198;-54
2023/01/23 09:24:56;;;;;;;4.47;1.60;;;22.90;49.20;;;;;;4952789;28;20199;-54
2023/01/23 09:27:26;;;;;;;1.80;1.00;;;22.90;49.20;;;;;;4955456;28;20223;-54
2023/01/23 09:29:57;;;;;;;1.58;1.10;;;22.90;49.20;;;;;;4955248;28;20234;-55
2023/01/23 09:32:30;;;;;;;2.85;1.35;;;22.90;49.20;;;;;;4955636;28;20573;-55
2023/01/23 09:35:00;;;;;;;2.30;0.93;;;22.80;49.10;;;;;;4953754;28;20226;-55
2023/01/23 09:37:58;;;;;;;2.47;1.00;;;22.80;49.20;;;;;;4954382;28;20583;-56
2023/01/23 09:40:26;;;;;;;2.75;1.10;;;22.80;49.20;;;;;;4954908;29;20632;-54
2023/01/23 09:42:59;;;;;;;2.13;1.00;;;22.80;49.10;;;;;;4948111;28;20595;-54
2023/01/23 09:45:31;;;;;;;1.80;1.00;;;22.80;49.10;;;;;;4946408;29;20695;-55
2023/01/23 09:48:21;;;;;;;2.38;1.17;;;22.80;49.20;;;;;;4954246;28;20246;-55
2023/01/23 09:50:58;;;;;;;2.05;1.02;;;22.80;49.20;;;;;;4953270;28;20206;-55
2023/01/23 09:53:35;;;;;;;1.80;0.93;;;22.80;49.10;;;;;;4954012;28;20206;-54
2023/01/23 09:56:15;;;;;;;1.30;0.98;;;22.80;49.20;;;;;;4954773;28;20195;-56
2023/01/23 09:58:55;;;;;;;2.03;1.10;;;22.80;49.20;;;;;;4954251;28;20752;-55
2023/01/23 10:01:29;;;;;;;1.70;0.93;;;22.80;49.20;;;;;;4954844;28;20662;-56
2023/01/23 10:04:03;;;;;;;2.03;1.17;;;22.70;49.10;;;;;;4944106;28;21095;-56
2023/01/23 10:06:42;;;;;;;1.90;1.00;;;22.70;49.20;;;;;;4953173;28;20588;-53
2023/01/23 10:09:30;;;;;;;1.85;1.00;;;22.70;49.20;;;;;;4954193;28;20607;-55
2023/01/23 10:12:11;;;;;;;2.20;1.10;;;22.70;49.20;;;;;;4954254;28;20203;-56
2023/01/23 10:15:04;;;;;;;1.65;1.00;;;22.70;49.20;;;;;;4927685;29;20229;-55
2023/01/23 10:17:42;;;;;;;2.15;1.05;;;22.70;49.80;;;;;;4954859;28;20608;-53
2023/01/23 10:20:45;;;;;;;1.30;1.00;;;22.60;49.10;;;;;;4954543;29;20198;-56
2023/01/23 10:23:36;;;;;;;3.40;1.35;;;22.60;49.10;;;;;;4912292;29;20214;-55
2023/01/23 10:26:12;;;;;;;2.03;0.90;;;22.70;49.20;;;;;;4942246;29;20202;-54
2023/01/23 10:28:44;;;;;;;0.93;0.80;;;22.60;49.10;;;;;;4953661;28;20194;-54
2023/01/23 10:31:26;;;;;;;1.25;0.95;;;22.60;49.10;;;;;;4953988;28;20202;-53
2023/01/23 10:34:03;;;;;;;1.45;1.00;;;22.70;49.20;;;;;;4954201;28;20226;-56
2023/01/23 10:36:41;;;;;;;1.98;0.80;;;22.60;49.10;;;;;;4952927;28;20199;-54
2023/01/23 10:39:17;;;;;;;1.48;1.00;;;22.60;49.20;;;;;;4953298;28;20203;-55
2023/01/23 10:41:49;;;;;;;2.00;0.90;;;22.60;49.20;;;;;;4953641;28;20705;-55
2023/01/23 10:44:21;;;;;;;1.85;1.00;;;22.60;49.20;;;;;;4923499;28;20212;-56
2023/01/23 10:46:53;;;;;;;1.70;0.80;;;22.60;49.20;;;;;;4952412;28;20687;-54
2023/01/23 10:49:33;;;;;;;1.58;0.82;;;22.60;49.20;;;;;;4953618;28;20206;-53
2023/01/23 10:52:06;;;;;;;1.63;0.90;;;22.50;49.20;;;;;;4953488;28;20761;-55
2023/01/23 10:54:48;;;;;;;0.90;0.60;;;22.50;49.20;;;;;;4945597;28;20223;-56
2023/01/23 10:57:26;;;;;;;2.08;0.90;;;22.50;49.20;;;;;;4953792;28;20219;-53
2023/01/23 11:00:00;;;;;;;1.65;0.85;;;22.50;49.20;;;;;;4930004;28;20216;-55
2023/01/23 11:02:32;;;;;;;1.17;0.80;;;22.50;49.20;;;;;;4935057;28;20204;-55
2023/01/23 11:05:05;;;;;;;2.33;0.80;;;22.50;49.20;;;;;;4937037;29;20207;-56
2023/01/23 11:07:40;;;;;;;1.60;0.77;;;22.50;49.20;;;;;;4953774;28;20222;-54
2023/01/23 11:10:22;;;;;;;1.70;0.80;;;22.50;49.20;;;;;;4952459;28;20230;-55
2023/01/23 11:12:57;;;;;;;1.38;0.80;;;22.50;49.20;;;;;;4947919;28;20271;-56
2023/01/23 11:15:29;;;;;;;1.15;0.88;;;22.50;49.30;;;;;;4930512;29;20568;-54
2023/01/23 11:18:01;;;;;;;1.65;0.90;;;22.50;49.20;;;;;;4953411;28;20215;-55
2023/01/23 11:20:34;;;;;;;2.33;1.00;;;22.40;49.20;;;;;;4952387;28;20199;-54
2023/01/23 11:23:15;;;;;;;0.82;0.60;;;22.40;49.20;;;;;;4952521;28;20203;-57
2023/01/23 11:25:48;;;;;;;2.38;0.88;;;22.40;49.20;;;;;;4952901;28;20198;-55
2023/01/23 11:28:25;;;;;;;1.60;1.10;;;22.40;49.20;;;;;;4952805;28;20226;-55
2023/01/23 11:31:01;;;;;;;1.73;0.80;;;22.40;49.20;;;;;;4952821;28;20591;-56
2023/01/23 11:33:51;;;;;;;2.38;0.90;;;22.40;49.30;;;;;;4953024;28;20206;-57
2023/01/23 11:36:41;;;;;;;0.88;0.65;;;22.40;49.30;;;;;;4952934;28;20198;-56
2023/01/23 11:39:22;;;;;;;1.30;0.82;;;22.40;49.30;;;;;;4952416;28;20723;-56
2023/01/23 11:41:53;;;;;;;1.50;0.90;;;22.40;49.30;;;;;;4953291;28;20905;-53
2023/01/23 11:44:25;;;;;;;1.90;0.88;;;22.40;49.30;;;;;;4935597;28;20210;-55
2023/01/23 11:47:19;;;;;;;1.42;0.80;;;22.40;49.30;;;;;;4933819;29;20223;-56
2023/01/23 11:50:14;;;;;;;1.80;0.80;;;22.40;49.30;;;;;;4933711;29;20722;-55
2023/01/23 11:52:56;;;;;;;1.08;0.70;;;22.30;49.20;;;;;;4933612;29;20203;-54
2023/01/23 11:55:47;;;;;;;1.98;1.00;;;22.30;49.20;;;;;;4933627;29;20243;-52
2023/01/23 11:58:37;;;;;;;1.58;0.88;;;22.30;49.30;;;;;;4933882;29;20246;-55
2023/01/23 12:01:14;;;;;;;2.42;1.08;;;22.30;49.30;;;;;;4934078;29;20203;-56
2023/01/23 12:04:28;;;;;;;1.20;0.77;;;22.30;49.30;;;;;;4933884;29;20214;-58
2023/01/23 12:07:17;;;;;;;1.20;0.70;;;22.30;49.40;;;;;;4933905;29;20227;-56
2023/01/23 12:10:04;;;;;;;1.20;0.75;;;22.30;49.30;;;;;;4933753;29;20559;-55
2023/01/23 12:13:08;;;;;;;2.17;0.90;;;22.30;49.40;;;;;;4934416;28;20546;-54
2023/01/23 12:15:46;;;;;;;1.33;0.80;;;22.30;49.40;;;;;;4933459;29;20227;-56
2023/01/23 12:18:33;;;;;;;1.30;0.88;;;22.30;49.40;;;;;;4933284;29;20219;-55
2023/01/23 12:21:11;;;;;;;1.23;0.70;;;22.20;49.40;;;;;;4933784;29;20199;-56
2023/01/23 12:23:58;;;;;;;2.15;1.00;;;22.20;49.40;;;;;;4933575;29;20683;-56
2023/01/23 12:26:30;;;;;;;0.98;0.60;;;22.20;49.40;;;;;;4933521;29;20203;-55
2023/01/23 12:29:52;;;;;;;1.35;0.68;;;22.20;49.40;;;;;;4933690;29;20214;-57
2023/01/23 12:32:43;;;;;;;1.98;1.02;;;22.20;49.40;;;;;;4923978;29;20218;-58
2023/01/23 12:35:31;;;;;;;1.80;0.80;;;22.20;49.40;;;;;;4933170;29;20235;-54
2023/01/23 12:38:14;;;;;;;0.93;0.90;;;22.20;49.40;;;;;;4933017;29;20223;-56
2023/01/23 12:40:50;;;;;;;1.40;0.80;;;22.20;49.50;;;;;;4933642;29;20711;-56
2023/01/23 12:43:36;;;;;;;0.77;0.68;;;22.20;49.50;;;;;;4933603;29;20207;-56
2023/01/23 12:46:13;;;;;;;1.00;0.60;;;22.10;49.50;;;;;;4933794;29;20672;-56
2023/01/23 12:48:48;;;;;;;0.80;0.63;;;22.10;49.50;;;;;;4933606;29;20199;-53
2023/01/23 12:51:23;;;;;;;1.48;0.77;;;22.10;49.50;;;;;;4933204;29;20209;-55
2023/01/23 12:53:57;;;;;;;2.13;1.00;;;22.10;49.50;;;;;;4932663;29;20198;-57
2023/01/23 12:56:31;;;;;;;1.23;0.85;;;22.10;49.80;;;;;;4914387;29;20227;-55
2023/01/23 12:59:09;;;;;;;2.33;0.85;;;22.10;49.50;;;;;;4914303;29;20216;-54
2023/01/23 13:02:02;;;;;;;1.80;0.90;;;22.10;49.50;;;;;;4914698;29;20204;-54
2023/01/23 13:04:57;;;;;;;1.20;0.90;;;22.10;49.50;;;;;;4932908;29;20211;-54
2023/01/23 13:07:46;;;;;;;2.25;1.05;;;22.10;49.50;;;;;;4933401;29;20223;-56
2023/01/23 13:13:25;;;;;;;1.10;0.80;;;22.10;49.50;;;;;;4934067;29;20569;-55
2023/01/23 13:16:11;;;;;;;3.28;1.10;;;22.10;49.50;;;;;;4933205;29;20699;-56
2023/01/23 13:27:50;;;;;;;2.35;1.02;;;22.00;49.60;;;;;;4917738;29;20263;-55
2023/01/23 13:31:02;;;;;;;1.08;0.77;;;22.10;49.60;;;;;;4917167;29;20607;-57
2023/01/23 13:33:58;;;;;;;1.55;0.70;;;22.00;49.60;;;;;;4914496;29;20200;-57
2023/01/23 13:36:37;;;;;;;1.40;0.70;;;22.00;49.60;;;;;;4914735;29;20235;-54
2023/01/23 13:39:31;;;;;;;2.83;0.80;;;22.00;49.60;;;;;;4916797;29;20204;-56
2023/01/23 13:42:39;;;;;;;1.35;0.80;;;22.00;49.60;;;;;;4917297;29;20208;-53
2023/01/23 13:45:31;;;;;;;1.45;0.70;;;22.00;49.60;;;;;;4896181;29;20201;-54